createdAt,value
2022-09-28T00:01:56.433Z,1.27
2022-09-28T00:05:17.939Z,1.20
2022-09-28T00:08:40.209Z,1.30
2022-09-28T00:12:02.057Z,1.20
2022-09-28T00:15:24.699Z,1.20
2022-09-28T00:18:50.082Z,1.20
2022-09-28T00:22:11.714Z,1.30
2022-09-28T00:25:33.825Z,1.50
2022-09-28T00:28:56.158Z,1.33
2022-09-28T00:32:17.368Z,1.40
2022-09-28T00:35:40.466Z,1.60
2022-09-28T00:39:06.426Z,1.37
2022-09-28T00:42:28.172Z,1.70
2022-09-28T00:45:58.435Z,1.83
2022-09-28T00:49:23.673Z,2.00
2022-09-28T00:52:55.167Z,2.10
2022-09-28T00:56:20.274Z,2.23
2022-09-28T00:59:43.338Z,2.10
2022-09-28T01:03:05.277Z,2.50
2022-09-28T01:06:31.105Z,2.40
2022-09-28T01:09:56.353Z,2.23
2022-09-28T01:13:19.001Z,2.60
2022-09-28T01:16:46.892Z,2.40
2022-09-28T01:20:58.134Z,2.33
2022-09-28T01:24:42.033Z,2.40
2022-09-28T01:28:08.837Z,3.00
2022-09-28T01:31:34.107Z,2.60
2022-09-28T01:34:59.935Z,3.20
2022-09-28T01:38:25.266Z,2.93
2022-09-28T01:41:53.200Z,2.93
2022-09-28T01:45:22.647Z,2.80
2022-09-28T01:48:51.699Z,3.20
2022-09-28T01:52:19.047Z,3.50
2022-09-28T01:55:45.329Z,3.43
2022-09-28T01:59:11.711Z,3.83
2022-09-28T02:02:40.878Z,3.57
2022-09-28T02:06:08.052Z,3.20
2022-09-28T02:09:35.382Z,3.87
2022-09-28T02:13:01.371Z,3.87
2022-09-28T02:16:32.696Z,3.90
2022-09-28T02:19:56.541Z,3.40
2022-09-28T02:23:19.529Z,3.50
2022-09-28T02:26:44.692Z,4.20
2022-09-28T02:30:07.969Z,3.80
2022-09-28T02:33:34.042Z,3.70
2022-09-28T02:36:56.971Z,3.57
2022-09-28T02:40:21.592Z,3.73
2022-09-28T02:43:57.063Z,3.70
2022-09-28T02:47:33.076Z,4.07
2022-09-28T02:51:06.000Z,3.73
2022-09-28T02:54:52.864Z,4.20
2022-09-28T02:58:25.581Z,3.83
2022-09-28T03:01:57.343Z,4.40
2022-09-28T03:05:23.038Z,4.47
2022-09-28T03:08:49.621Z,4.50
2022-09-28T03:12:18.492Z,4.53
2022-09-28T03:15:45.169Z,4.30
2022-09-28T03:19:09.349Z,4.17
2022-09-28T03:22:30.731Z,4.53
2022-09-28T03:25:51.950Z,4.93
2022-09-28T03:29:15.095Z,4.47
2022-09-28T03:32:40.110Z,4.77
2022-09-28T03:36:02.204Z,4.57
2022-09-28T03:39:24.168Z,5.27
2022-09-28T03:42:45.987Z,4.80
2022-09-28T03:46:09.259Z,4.90
2022-09-28T03:49:35.993Z,4.67
2022-09-28T03:53:03.459Z,4.70
2022-09-28T03:56:25.402Z,5.20
2022-09-28T03:59:46.710Z,5.37
2022-09-28T04:03:10.250Z,4.70
2022-09-28T04:06:31.759Z,4.90
2022-09-28T04:09:53.409Z,4.73
2022-09-28T04:13:15.442Z,4.13
2022-09-28T04:16:37.161Z,5.33
2022-09-28T04:20:05.493Z,5.60
2022-09-28T04:23:36.953Z,5.17
2022-09-28T04:27:18.785Z,4.30
2022-09-28T04:30:39.404Z,4.67
2022-09-28T04:34:01.309Z,4.67
2022-09-28T04:37:24.599Z,4.63
2022-09-28T04:40:45.861Z,4.37
2022-09-28T04:44:08.172Z,4.53
2022-09-28T04:47:30.856Z,5.47
2022-09-28T04:51:25.358Z,4.37
2022-09-28T04:54:48.478Z,4.90
2022-09-28T04:58:11.349Z,4.10
2022-09-28T05:01:32.699Z,4.40
2022-09-28T05:04:55.325Z,4.20
2022-09-28T05:08:40.238Z,5.77
2022-09-28T05:12:03.501Z,6.67
2022-09-28T05:15:25.065Z,5.93
2022-09-28T05:18:47.383Z,5.70
2022-09-28T05:22:13.904Z,5.63
2022-09-28T05:25:39.495Z,5.20
2022-09-28T05:29:11.414Z,5.10
2022-09-28T05:32:42.341Z,5.70
2022-09-28T05:36:16.099Z,5.77
2022-09-28T05:39:37.842Z,5.10
2022-09-28T05:43:03.322Z,4.93
2022-09-28T05:46:28.171Z,5.17
2022-09-28T05:49:52.948Z,5.20
2022-09-28T05:53:14.654Z,7.53
2022-09-28T05:56:36.357Z,5.93
2022-09-28T06:00:00.673Z,6.03
2022-09-28T06:03:24.336Z,5.67
2022-09-28T06:06:46.065Z,6.00
2022-09-28T06:10:08.493Z,6.77
2022-09-28T06:13:37.412Z,6.77
2022-09-28T06:16:59.298Z,11.00
2022-09-28T06:20:22.050Z,7.57
2022-09-28T06:24:03.303Z,6.60
2022-09-28T06:27:24.804Z,6.87
2022-09-28T06:30:48.199Z,7.40
2022-09-28T06:34:12.724Z,6.80
2022-09-28T06:37:35.775Z,7.53
2022-09-28T06:40:58.914Z,8.20
2022-09-28T06:44:20.807Z,8.70
2022-09-28T06:48:16.470Z,9.27
2022-09-28T06:51:38.044Z,8.03
2022-09-28T06:55:14.568Z,9.07
2022-09-28T06:58:38.552Z,8.77
2022-09-28T07:02:00.333Z,10.37
2022-09-28T07:05:43.669Z,11.43
2022-09-28T07:09:32.214Z,11.03
2022-09-28T07:13:49.172Z,10.97
2022-09-28T07:17:14.591Z,10.50
2022-09-28T07:20:50.799Z,9.70
2022-09-28T07:24:15.191Z,9.70
2022-09-28T07:28:09.454Z,9.00
2022-09-28T07:31:57.486Z,8.03
2022-09-28T07:35:34.381Z,7.95
2022-09-28T07:38:56.087Z,8.05
2022-09-28T07:42:18.088Z,8.27
2022-09-28T07:45:39.537Z,8.63
2022-09-28T07:49:08.367Z,8.50
2022-09-28T07:53:08.328Z,8.30
2022-09-28T07:56:43.371Z,9.02
2022-09-28T08:00:25.335Z,9.27
2022-09-28T08:03:47.133Z,9.00
2022-09-28T08:07:12.301Z,9.55
2022-09-28T08:10:35.578Z,8.77
2022-09-28T08:14:19.770Z,8.98
2022-09-28T08:17:57.976Z,9.30
2022-09-28T08:21:47.750Z,7.82
2022-09-28T08:25:11.192Z,8.02
2022-09-28T08:28:32.571Z,7.95
2022-09-28T08:32:01.514Z,8.07
2022-09-28T08:35:29.396Z,6.97
2022-09-28T08:39:20.467Z,7.85
2022-09-28T08:43:29.814Z,7.38
2022-09-28T08:46:59.905Z,7.82
2022-09-28T08:50:50.981Z,11.77
2022-09-28T08:54:29.998Z,7.25
2022-09-28T08:57:59.139Z,6.82
2022-09-28T09:01:27.668Z,7.47
2022-09-28T09:04:51.967Z,7.35
2022-09-28T09:08:38.265Z,6.10
2022-09-28T09:12:08.256Z,6.78
2022-09-28T09:15:43.679Z,6.43
2022-09-28T09:19:24.746Z,5.95
2022-09-28T09:23:09.017Z,5.93
2022-09-28T09:26:39.314Z,5.53
2022-09-28T09:30:07.439Z,5.50
2022-09-28T09:34:04.715Z,5.72
2022-09-28T09:38:00.217Z,4.72
2022-09-28T09:41:57.204Z,5.55
2022-09-28T09:46:08.024Z,5.45
2022-09-28T09:50:05.535Z,5.15
2022-09-28T09:53:39.906Z,5.53
2022-09-28T09:57:11.106Z,5.07
2022-09-28T10:00:57.303Z,4.90
2022-09-28T10:04:44.596Z,4.93
2022-09-28T10:08:18.840Z,4.95
2022-09-28T10:11:44.608Z,4.85
2022-09-28T10:15:10.043Z,5.43
2022-09-28T10:18:43.102Z,5.93
2022-09-28T10:22:27.289Z,5.32
2022-09-28T10:25:53.633Z,5.20
2022-09-28T10:29:17.946Z,5.88
2022-09-28T10:32:45.608Z,6.10
2022-09-28T10:36:08.457Z,6.22
2022-09-28T10:39:34.354Z,6.05
2022-09-28T10:43:01.772Z,5.18
2022-09-28T10:46:26.271Z,6.10
2022-09-28T10:49:52.001Z,5.00
2022-09-28T10:53:20.594Z,4.63
2022-09-28T10:57:29.296Z,5.90
2022-09-28T11:01:03.404Z,5.53
2022-09-28T11:04:32.760Z,5.10
2022-09-28T11:07:55.742Z,5.65
2022-09-28T11:11:22.196Z,5.82
2022-09-28T11:14:59.360Z,6.07
2022-09-28T11:18:27.468Z,5.20
2022-09-28T11:21:51.075Z,5.07
2022-09-28T11:25:22.146Z,4.93
2022-09-28T11:28:43.678Z,5.63
2022-09-28T11:32:16.099Z,5.22
2022-09-28T11:36:10.299Z,4.63
2022-09-28T11:39:41.974Z,5.00
2022-09-28T11:43:14.405Z,4.45
2022-09-28T11:46:50.538Z,4.35
2022-09-28T11:50:24.398Z,4.20
2022-09-28T11:53:52.293Z,4.50
2022-09-28T11:57:22.165Z,4.57
2022-09-28T12:00:50.766Z,4.28
2022-09-28T12:04:22.665Z,4.20
2022-09-28T12:07:49.367Z,4.43
2022-09-28T12:11:36.958Z,4.10
2022-09-28T12:15:18.508Z,3.45
2022-09-28T12:18:47.934Z,3.42
2022-09-28T12:22:18.226Z,3.10
2022-09-28T12:25:46.506Z,3.50
2022-09-28T12:29:14.810Z,3.50
2022-09-28T12:32:42.596Z,3.60
2022-09-28T12:36:11.046Z,3.17
2022-09-28T12:39:57.600Z,3.33
2022-09-28T12:43:33.851Z,2.95
2022-09-28T12:47:20.565Z,3.15
2022-09-28T12:50:56.968Z,3.15
2022-09-28T12:54:43.317Z,2.95
2022-09-28T12:58:21.102Z,3.42
2022-09-28T13:02:01.167Z,2.80
2022-09-28T13:05:44.319Z,2.67
2022-09-28T13:09:19.963Z,2.40
2022-09-28T13:12:53.850Z,2.83
2022-09-28T13:16:24.796Z,2.35
2022-09-28T13:19:53.910Z,2.22
2022-09-28T13:23:22.144Z,2.92
2022-09-28T13:26:48.479Z,2.90
2022-09-28T13:30:17.199Z,3.20
2022-09-28T13:33:42.754Z,3.60
2022-09-28T13:37:21.638Z,3.30
2022-09-28T13:41:13.575Z,3.10
2022-09-28T13:45:02.643Z,3.20
2022-09-28T13:48:34.367Z,3.72
2022-09-28T13:52:07.745Z,3.17
2022-09-28T13:55:38.776Z,2.90
2022-09-28T13:59:05.255Z,2.53
2022-09-28T14:02:36.504Z,2.90
2022-09-28T14:06:11.505Z,3.67
2022-09-28T14:09:45.519Z,4.47
2022-09-28T14:13:10.388Z,4.47
2022-09-28T14:16:33.574Z,3.80
2022-09-28T14:20:02.115Z,3.63
2022-09-28T14:23:48.470Z,2.60
2022-09-28T14:27:28.452Z,3.00
2022-09-28T14:30:53.289Z,3.10
2022-09-28T14:34:27.874Z,3.58
2022-09-28T14:38:10.554Z,3.30
2022-09-28T14:41:36.412Z,3.38
2022-09-28T14:45:36.647Z,3.45
2022-09-28T14:49:01.698Z,3.53
2022-09-28T14:52:41.862Z,2.28
2022-09-28T14:56:09.958Z,2.70
2022-09-28T14:59:36.265Z,3.95
2022-09-28T15:03:01.931Z,2.50
2022-09-28T15:06:24.667Z,2.20
2022-09-28T15:09:49.579Z,2.72
2022-09-28T15:13:21.992Z,3.13
2022-09-28T15:16:43.413Z,3.55
2022-09-28T15:20:24.085Z,3.10
2022-09-28T15:23:46.924Z,3.58
2022-09-28T15:27:19.032Z,3.97
2022-09-28T15:30:42.448Z,3.05
2022-09-28T15:34:27.208Z,2.83
2022-09-28T15:37:51.990Z,2.75
2022-09-28T15:41:13.495Z,3.03
2022-09-28T15:44:37.950Z,3.22
2022-09-28T15:48:21.511Z,3.33
2022-09-28T15:51:52.154Z,3.30
2022-09-28T15:55:22.247Z,5.80
2022-09-28T15:58:44.548Z,6.53
2022-09-28T16:02:15.757Z,6.57
2022-09-28T16:05:45.331Z,6.88
2022-09-28T16:09:38.929Z,4.55
2022-09-28T16:13:15.558Z,5.00
2022-09-28T16:16:46.496Z,4.82
2022-09-28T16:20:23.117Z,4.65
2022-09-28T16:23:52.213Z,5.80
2022-09-28T16:27:26.603Z,5.03
2022-09-28T16:31:01.771Z,4.82
2022-09-28T16:34:27.201Z,5.65
2022-09-28T16:37:55.448Z,4.60
2022-09-28T16:41:23.564Z,4.80
2022-09-28T16:44:45.005Z,4.95
2022-09-28T16:48:06.888Z,4.82
2022-09-28T16:51:28.601Z,4.80
2022-09-28T16:55:17.813Z,4.50
2022-09-28T16:58:50.690Z,4.68
2022-09-28T17:02:42.358Z,4.20
2022-09-28T17:05:59.716Z,4.45
2022-09-28T17:09:21.943Z,4.50
2022-09-28T17:12:43.416Z,3.72
2022-09-28T17:16:11.142Z,3.90
2022-09-28T17:19:33.080Z,3.37
2022-09-28T17:22:55.026Z,3.25
2022-09-28T17:26:20.289Z,2.58
2022-09-28T17:29:42.023Z,3.03
2022-09-28T17:33:04.851Z,2.70
2022-09-28T17:36:26.932Z,2.85
2022-09-28T17:39:48.486Z,2.40
2022-09-28T17:43:10.359Z,2.40
2022-09-28T17:46:34.770Z,2.80
2022-09-28T17:49:58.497Z,2.53
2022-09-28T17:53:20.249Z,4.13
2022-09-28T17:56:42.642Z,2.78
2022-09-28T18:00:04.573Z,2.75
2022-09-28T18:03:26.937Z,2.83
2022-09-28T18:06:50.999Z,2.60
2022-09-28T18:10:15.611Z,2.50
2022-09-28T18:13:37.800Z,2.40
2022-09-28T18:16:59.359Z,2.85
2022-09-28T18:20:21.586Z,3.90
2022-09-28T18:23:44.633Z,3.15
2022-09-28T18:27:06.054Z,3.57
2022-09-28T18:30:28.699Z,3.47
2022-09-28T18:33:50.274Z,3.57
2022-09-28T18:37:12.143Z,3.30
2022-09-28T18:40:35.939Z,3.40
2022-09-28T18:44:00.772Z,3.33
2022-09-28T18:47:22.513Z,3.28
2022-09-28T18:50:44.066Z,3.43
2022-09-28T18:54:07.088Z,3.50
2022-09-28T18:57:33.162Z,3.50
2022-09-28T19:01:08.502Z,3.97
2022-09-28T19:04:36.608Z,4.07
2022-09-28T19:07:58.318Z,4.45
2022-09-28T19:11:20.193Z,5.20
2022-09-28T19:14:43.730Z,4.70
2022-09-28T19:18:05.458Z,4.70
2022-09-28T19:21:27.846Z,4.50
2022-09-28T19:24:49.428Z,4.30
2022-09-28T19:28:11.546Z,4.23
2022-09-28T19:31:34.439Z,4.00
2022-09-28T19:34:56.442Z,3.93
2022-09-28T19:38:18.436Z,4.40
2022-09-28T19:41:44.317Z,3.83
2022-09-28T19:45:07.385Z,4.60
2022-09-28T19:48:30.395Z,4.93
2022-09-28T19:52:13.713Z,5.13
2022-09-28T19:55:36.194Z,4.60
2022-09-28T19:58:58.262Z,5.00
2022-09-28T20:02:20.110Z,4.35
2022-09-28T20:05:43.406Z,4.27
2022-09-28T20:09:04.991Z,5.40
2022-09-28T20:12:26.990Z,4.73
2022-09-28T20:15:48.872Z,4.87
2022-09-28T20:19:10.309Z,4.65
2022-09-28T20:22:33.358Z,5.07
2022-09-28T20:25:54.641Z,5.47
2022-09-28T20:29:16.003Z,5.90
2022-09-28T20:32:38.292Z,5.63
2022-09-28T20:36:05.596Z,5.10
2022-09-28T20:39:28.671Z,4.85
2022-09-28T20:42:50.054Z,4.50
2022-09-28T20:46:12.596Z,4.57
2022-09-28T20:49:34.286Z,4.80
2022-09-28T20:52:56.066Z,4.93
2022-09-28T20:56:21.247Z,4.47
2022-09-28T20:59:43.027Z,4.53
2022-09-28T21:03:05.069Z,5.17
2022-09-28T21:06:29.064Z,4.43
2022-09-28T21:09:50.767Z,4.50
2022-09-28T21:13:13.599Z,4.00
2022-09-28T21:16:35.960Z,4.10
2022-09-28T21:19:57.230Z,4.37
2022-09-28T21:23:24.569Z,3.80
2022-09-28T21:26:46.394Z,3.97
2022-09-28T21:30:10.554Z,3.43
2022-09-28T21:33:32.023Z,3.60
2022-09-28T21:36:54.695Z,4.00
2022-09-28T21:40:16.722Z,4.20
2022-09-28T21:43:38.383Z,3.83
2022-09-28T21:47:01.621Z,3.57
2022-09-28T21:50:25.067Z,3.90
2022-09-28T21:53:48.475Z,3.77
2022-09-28T21:57:10.543Z,3.87
2022-09-28T22:00:32.373Z,3.83
2022-09-28T22:03:57.228Z,4.07
2022-09-28T22:07:19.011Z,3.93
2022-09-28T22:10:40.205Z,3.87
2022-09-28T22:14:01.488Z,4.10
2022-09-28T22:17:22.780Z,3.50
2022-09-28T22:20:45.306Z,3.67
2022-09-28T22:24:08.801Z,3.80
2022-09-28T22:27:32.876Z,3.90
2022-09-28T22:30:54.953Z,3.67
2022-09-28T22:34:16.654Z,3.27
2022-09-28T22:37:39.597Z,3.47
2022-09-28T22:41:01.388Z,3.20
2022-09-28T22:44:22.957Z,3.20
2022-09-28T22:47:44.943Z,3.37
2022-09-28T22:51:07.695Z,3.30
2022-09-28T22:54:30.698Z,3.83
2022-09-28T22:57:52.195Z,3.40
2022-09-28T23:01:17.244Z,3.33
2022-09-28T23:04:39.102Z,4.33
2022-09-28T23:08:00.453Z,3.60
2022-09-28T23:11:23.686Z,3.70
2022-09-28T23:14:44.987Z,3.70
2022-09-28T23:18:08.405Z,3.70
2022-09-28T23:21:29.789Z,3.87
2022-09-28T23:24:51.043Z,3.60
2022-09-28T23:28:14.130Z,3.70
2022-09-28T23:31:35.776Z,4.20
2022-09-28T23:34:57.255Z,4.00
2022-09-28T23:38:19.388Z,3.73
2022-09-28T23:41:40.913Z,3.73
2022-09-28T23:45:03.755Z,4.10
2022-09-28T23:48:25.131Z,4.00
2022-09-28T23:51:47.105Z,3.60
2022-09-28T23:55:09.458Z,3.40
